TimeEST,TemperatureF,Dew PointF,Humidity,Sea Level PressureIn,VisibilityMPH,Wind Direction,Wind SpeedMPH,Gust SpeedMPH,PrecipitationIn,Events,Conditions,WindDirDegrees,DateUTC
12:52 AM,-0.0,-6.0,76,30.65,10.0,SW,3.5,-,N/A,,Scattered Clouds,230,2014-01-24 05:52:00
1:52 AM,-0.9,-6.0,79,30.65,10.0,WSW,3.5,-,N/A,,Scattered Clouds,240,2014-01-24 06:52:00
2:52 AM,-2.9,-7.1,82,30.66,10.0,SW,3.5,-,N/A,,Scattered Clouds,230,2014-01-24 07:52:00
3:52 AM,-2.9,-7.1,82,30.65,10.0,SW,4.6,-,N/A,,Partly Cloudy,220,2014-01-24 08:52:00
4:05 AM,-2.2,-7.6,78,30.59,10.0,SW,3.5,-,N/A,,Partly Cloudy,230,2014-01-24 09:05:00
4:52 AM,-4.0,-8.0,83,30.64,10.0,SW,3.5,-,N/A,,Clear,220,2014-01-24 09:52:00
5:52 AM,-4.0,-9.0,79,30.62,10.0,SSW,4.6,-,N/A,,Clear,210,2014-01-24 10:52:00
6:52 AM,-4.0,-8.0,83,30.62,10.0,SW,3.5,-,N/A,,Clear,220,2014-01-24 11:52:00
7:52 AM,-4.0,-8.0,83,30.60,10.0,SW,8.1,-,N/A,,Clear,220,2014-01-24 12:52:00
8:52 AM,-2.0,-6.0,83,30.58,10.0,SSW,9.2,-,N/A,,Partly Cloudy,200,2014-01-24 13:52:00
9:52 AM,-0.0,-5.1,79,30.57,10.0,SW,9.2,-,N/A,,Partly Cloudy,220,2014-01-24 14:52:00
10:52 AM,3.9,-2.9,73,30.54,10.0,SSW,12.7,-,N/A,,Scattered Clouds,200,2014-01-24 15:52:00
11:52 AM,8.1,-2.9,61,30.50,10.0,SSW,11.5,19.6,N/A,,Scattered Clouds,210,2014-01-24 16:52:00
12:52 PM,10.0,-2.0,58,30.44,10.0,South,17.3,21.9,N/A,,Mostly Cloudy,190,2014-01-24 17:52:00
1:52 PM,12.9,-2.0,51,30.37,10.0,SSW,13.8,25.3,N/A,,Mostly Cloudy,210,2014-01-24 18:52:00
2:52 PM,14.0,-0.9,52,30.32,10.0,SSW,19.6,26.5,N/A,,Overcast,200,2014-01-24 19:52:00
3:52 PM,15.1,1.0,54,30.26,10.0,SSW,18.4,27.6,N/A,,Overcast,200,2014-01-24 20:52:00
4:52 PM,17.1,1.0,50,30.19,10.0,SSW,17.3,24.2,N/A,,Overcast,200,2014-01-24 21:52:00
5:52 PM,18.0,1.9,50,30.12,10.0,South,17.3,31.1,N/A,,Overcast,190,2014-01-24 22:52:00
6:52 PM,18.0,3.0,52,30.09,10.0,South,19.6,28.8,N/A,,Overcast,190,2014-01-24 23:52:00
7:52 PM,19.0,1.9,47,30.05,10.0,SSW,19.6,26.5,N/A,,Overcast,200,2014-01-25 00:52:00
8:52 PM,19.9,1.9,46,29.99,10.0,SSW,20.7,29.9,N/A,,Overcast,210,2014-01-25 01:52:00
9:52 PM,21.0,1.9,44,29.96,10.0,SSW,16.1,31.1,N/A,,Overcast,210,2014-01-25 02:52:00
10:52 PM,21.0,1.9,44,29.94,10.0,SW,17.3,26.5,N/A,,Mostly Cloudy,220,2014-01-25 03:52:00
11:52 PM,21.9,1.0,40,29.89,10.0,SW,16.1,27.6,N/A,,Overcast,220,2014-01-25 04:52:00